Time;durP1;ratioP1;P1;durP2;ratioP2;P2;SDS_P1;SDS_P2;PMS_P1;PMS_P2;Temp;Humidity;BMP_temperature;BMP_pressure;BME280_temperature;BME280_humidity;BME280_pressure;Samples;Min_cycle;Max_cycle;Signal;HPM_P1;HPM_P2
2023/06/10 00:02:11;;;;;;;0.45;0.22;;;17.20;99.90;;;;;;5029050;28;20051;-65
2023/06/10 00:04:37;;;;;;;0.30;0.20;;;17.20;99.90;;;;;;5038502;28;20029;-65
2023/06/10 00:07:04;;;;;;;1.38;0.85;;;17.10;99.90;;;;;;5038350;28;20037;-65
2023/06/10 00:09:29;;;;;;;0.95;0.65;;;17.10;99.90;;;;;;5061905;28;20167;-65
2023/06/10 00:11:55;;;;;;;2.95;0.70;;;17.10;99.90;;;;;;5072135;28;20155;-66
2023/06/10 00:14:20;;;;;;;0.22;0.22;;;17.10;99.90;;;;;;5067696;28;20041;-66
2023/06/10 00:16:46;;;;;;;1.75;0.22;;;17.10;99.90;;;;;;5039850;28;20255;-65
2023/06/10 00:19:13;;;;;;;1.60;0.50;;;17.10;99.90;;;;;;5073306;28;20037;-66
2023/06/10 00:21:40;;;;;;;0.60;0.60;;;17.10;99.90;;;;;;5040931;28;20048;-66
2023/06/10 00:24:07;;;;;;;4.00;0.52;;;17.00;99.90;;;;;;5039945;28;20045;-65
2023/06/10 00:26:33;;;;;;;1.95;1.17;;;17.00;99.90;;;;;;5037524;28;21796;-66
2023/06/10 00:28:59;;;;;;;0.15;0.15;;;17.00;99.90;;;;;;5040150;28;20036;-66
2023/06/10 00:31:26;;;;;;;0.75;0.73;;;17.00;99.90;;;;;;5070819;28;20328;-65
2023/06/10 00:33:52;;;;;;;0.52;0.30;;;17.00;99.90;;;;;;5040075;28;20168;-66
2023/06/10 00:36:17;;;;;;;0.20;0.20;;;16.90;99.90;;;;;;5040691;28;20662;-65
2023/06/10 00:38:43;;;;;;;1.20;0.40;;;16.90;99.90;;;;;;5035355;28;20045;-65
2023/06/10 00:41:08;;;;;;;2.20;0.77;;;16.90;99.90;;;;;;5040140;28;20438;-65
2023/06/10 00:43:34;;;;;;;2.33;0.20;;;16.90;99.90;;;;;;5069146;28;20427;-65
2023/06/10 00:46:00;;;;;;;0.77;0.45;;;16.80;99.90;;;;;;5071503;28;20049;-65
2023/06/10 00:48:26;;;;;;;0.47;0.47;;;16.80;99.90;;;;;;5074514;28;20033;-65
2023/06/10 00:50:52;;;;;;;1.88;0.40;;;16.80;99.90;;;;;;5077434;28;20143;-66
2023/06/10 00:53:18;;;;;;;0.40;0.40;;;16.80;99.90;;;;;;5033728;28;20535;-65
2023/06/10 00:55:44;;;;;;;0.90;0.75;;;16.80;99.90;;;;;;5037949;28;20029;-65
2023/06/10 00:58:10;;;;;;;0.20;0.20;;;16.70;99.90;;;;;;5039863;28;20040;-65
2023/06/10 01:00:36;;;;;;;0.30;0.30;;;16.70;99.90;;;;;;5041707;28;20033;-66
2023/06/10 01:03:07;;;;;;;0.10;0.10;;;16.70;99.90;;;;;;5038749;28;20544;-66
2023/06/10 01:05:34;;;;;;;0.20;0.20;;;16.60;99.90;;;;;;5035070;28;20049;-65
2023/06/10 01:08:13;;;;;;;0.85;0.40;;;16.60;99.90;;;;;;5041480;28;20059;-65
2023/06/10 01:10:45;;;;;;;0.10;0.10;;;16.60;99.90;;;;;;5039456;28;20037;-65
2023/06/10 01:13:11;;;;;;;0.38;0.28;;;16.60;99.90;;;;;;5037783;28;20055;-65
2023/06/10 01:15:38;;;;;;;0.85;0.35;;;16.50;99.90;;;;;;5040475;28;20399;-65
2023/06/10 01:18:08;;;;;;;1.75;0.40;;;16.50;99.90;;;;;;5037590;28;20127;-65
2023/06/10 01:20:36;;;;;;;0.35;0.25;;;16.40;99.90;;;;;;5073488;28;20041;-65
2023/06/10 01:23:02;;;;;;;8.30;1.10;;;16.40;99.90;;;;;;5040849;28;20044;-65
2023/06/10 01:25:32;;;;;;;0.10;0.10;;;16.50;99.90;;;;;;5070464;28;20665;-65
2023/06/10 01:28:27;;;;;;;0.47;0.30;;;16.40;99.90;;;;;;5042652;28;20037;-66
2023/06/10 01:31:07;;;;;;;1.00;0.55;;;16.40;99.90;;;;;;5038145;28;20048;-65
2023/06/10 01:33:39;;;;;;;1.25;0.22;;;16.40;99.90;;;;;;5039111;28;20098;-64
2023/06/10 01:36:05;;;;;;;0.22;0.20;;;16.40;99.90;;;;;;5035753;28;20067;-65
2023/06/10 01:38:36;;;;;;;0.30;0.30;;;16.40;99.90;;;;;;5071802;28;20049;-65
2023/06/10 01:41:03;;;;;;;0.65;0.65;;;16.40;99.90;;;;;;5036324;28;20069;-65
2023/06/10 01:43:33;;;;;;;1.33;0.77;;;16.30;99.90;;;;;;5074464;28;20080;-65
2023/06/10 01:45:58;;;;;;;0.20;0.20;;;16.30;99.90;;;;;;5040186;28;20045;-65
2023/06/10 01:48:24;;;;;;;0.10;0.10;;;16.30;99.90;;;;;;5029941;28;20071;-65
2023/06/10 01:50:49;;;;;;;3.70;0.40;;;16.20;99.90;;;;;;5072052;28;20059;-64
2023/06/10 01:53:15;;;;;;;0.03;0.03;;;16.20;99.90;;;;;;5038820;28;20056;-65
2023/06/10 01:55:40;;;;;;;1.05;0.50;;;16.20;99.90;;;;;;5071503;28;20123;-64
2023/06/10 01:58:06;;;;;;;2.63;0.60;;;16.10;99.90;;;;;;5036079;28;20476;-65
2023/06/10 02:00:32;;;;;;;3.30;0.50;;;16.10;99.90;;;;;;5067881;28;20198;-64
2023/06/10 02:02:57;;;;;;;0.75;0.45;;;16.00;99.90;;;;;;5039152;28;20502;-64
2023/06/10 02:05:23;;;;;;;0.50;0.40;;;16.10;99.90;;;;;;5067306;28;20049;-65
2023/06/10 02:07:48;;;;;;;2.20;0.90;;;16.00;99.90;;;;;;5032437;28;20041;-65
2023/06/10 02:10:14;;;;;;;0.13;0.13;;;15.90;99.90;;;;;;5067272;28;20045;-64
2023/06/10 02:12:39;;;;;;;1.25;0.60;;;15.90;99.90;;;;;;5037021;28;20041;-65
2023/06/10 02:15:05;;;;;;;1.98;0.98;;;15.80;99.90;;;;;;5042033;28;20052;-64
2023/06/10 02:17:32;;;;;;;0.20;0.20;;;15.60;99.90;;;;;;5037993;28;20795;-64
2023/06/10 02:19:59;;;;;;;3.10;0.50;;;15.50;99.90;;;;;;5035110;28;20044;-64
2023/06/10 02:22:25;;;;;;;0.30;0.30;;;15.30;99.90;;;;;;5035728;28;20087;-64
2023/06/10 02:24:50;;;;;;;0.40;0.40;;;15.30;99.90;;;;;;5071186;28;20503;-64
2023/06/10 02:27:17;;;;;;;0.20;0.20;;;15.20;99.90;;;;;;5067591;28;20384;-64
2023/06/10 02:29:43;;;;;;;0.68;0.68;;;15.30;99.90;;;;;;5039782;28;20123;-64
2023/06/10 02:32:09;;;;;;;1.30;0.82;;;15.30;99.90;;;;;;5034942;28;20460;-64
2023/06/10 02:34:36;;;;;;;0.55;0.28;;;15.30;99.90;;;;;;5038848;28;20033;-64
2023/06/10 02:37:02;;;;;;;0.30;0.30;;;15.30;99.90;;;;;;5019063;28;20179;-64
2023/06/10 02:39:28;;;;;;;0.32;0.28;;;15.30;99.90;;;;;;5040204;28;20119;-65
2023/06/10 02:41:53;;;;;;;1.60;0.40;;;15.30;99.90;;;;;;5074447;28;20044;-64
2023/06/10 02:44:20;;;;;;;0.65;0.50;;;15.30;99.90;;;;;;5066561;28;20554;-64
2023/06/10 02:46:46;;;;;;;0.25;0.25;;;15.30;99.90;;;;;;5055001;28;20036;-65
2023/06/10 02:49:12;;;;;;;1.27;0.50;;;15.30;99.90;;;;;;5042543;28;20182;-64
2023/06/10 02:51:38;;;;;;;0.35;0.35;;;15.30;99.90;;;;;;5035377;28;20106;-64
2023/06/10 02:54:04;;;;;;;0.10;0.10;;;15.30;99.90;;;;;;5041447;28;20035;-65
2023/06/10 02:56:30;;;;;;;0.55;0.40;;;15.30;99.90;;;;;;5034324;28;20041;-65
2023/06/10 02:58:55;;;;;;;1.98;0.20;;;15.20;99.90;;;;;;5038545;28;20043;-64
2023/06/10 03:01:21;;;;;;;1.75;0.40;;;15.30;99.90;;;;;;5036643;28;20037;-64
2023/06/10 03:03:47;;;;;;;0.75;0.75;;;15.30;99.90;;;;;;5030346;28;20036;-65
2023/06/10 03:06:13;;;;;;;0.22;0.20;;;15.20;99.90;;;;;;5070274;28;20052;-64
2023/06/10 03:08:40;;;;;;;0.32;0.30;;;15.20;99.90;;;;;;5034649;28;20067;-65
2023/06/10 03:11:05;;;;;;;0.40;0.40;;;15.20;99.90;;;;;;5038163;28;20223;-64
2023/06/10 03:13:32;;;;;;;1.63;0.90;;;15.10;99.90;;;;;;5067284;28;20567;-65
2023/06/10 03:15:58;;;;;;;0.68;0.68;;;15.20;99.90;;;;;;5038993;28;20051;-64
2023/06/10 03:18:27;;;;;;;1.42;1.33;;;15.10;99.90;;;;;;5041217;28;20330;-64
2023/06/10 03:20:54;;;;;;;1.67;0.52;;;15.10;99.90;;;;;;5068924;28;20524;-65
2023/06/10 03:23:20;;;;;;;0.60;0.40;;;15.10;99.90;;;;;;5042652;28;20047;-64
2023/06/10 03:25:46;;;;;;;2.28;0.98;;;15.10;99.90;;;;;;5050684;28;20049;-65
2023/06/10 03:28:11;;;;;;;0.70;0.68;;;15.10;99.90;;;;;;5039128;28;20034;-64
2023/06/10 03:30:37;;;;;;;1.20;0.70;;;15.10;99.90;;;;;;5069494;28;20076;-65
2023/06/10 03:33:03;;;;;;;0.45;0.43;;;15.10;99.90;;;;;;5036284;28;20067;-64
2023/06/10 03:35:29;;;;;;;0.47;0.47;;;15.10;99.90;;;;;;5034681;28;20146;-65
2023/06/10 03:37:55;;;;;;;0.20;0.20;;;15.10;99.90;;;;;;5036175;28;20083;-65
2023/06/10 03:40:20;;;;;;;0.70;0.68;;;15.10;99.90;;;;;;5038403;28;20479;-65
2023/06/10 03:42:46;;;;;;;0.30;0.30;;;15.10;99.90;;;;;;5066452;28;20084;-65
2023/06/10 03:45:12;;;;;;;0.10;0.10;;;15.10;99.90;;;;;;5033289;28;20033;-65
2023/06/10 03:47:40;;;;;;;1.67;0.52;;;15.10;99.90;;;;;;5036305;28;20049;-65
2023/06/10 03:50:07;;;;;;;2.47;0.88;;;15.10;99.90;;;;;;5040247;28;20480;-64
2023/06/10 03:52:34;;;;;;;0.52;0.30;;;15.10;99.90;;;;;;5036724;28;20557;-65
2023/06/10 03:54:59;;;;;;;0.93;0.50;;;15.10;99.90;;;;;;5072973;28;20392;-64
2023/06/10 03:57:25;;;;;;;0.22;0.20;;;15.20;99.90;;;;;;5034937;28;20045;-66
2023/06/10 03:59:51;;;;;;;0.43;0.30;;;15.20;99.90;;;;;;5040084;28;20441;-64
2023/06/10 04:02:17;;;;;;;1.05;1.02;;;15.20;99.90;;;;;;5065096;28;20037;-65
2023/06/10 04:04:43;;;;;;;0.60;0.60;;;15.20;99.90;;;;;;5037517;28;20059;-65
2023/06/10 04:07:09;;;;;;;4.13;0.73;;;15.20;99.90;;;;;;5033732;28;20045;-65
2023/06/10 04:09:35;;;;;;;0.93;0.60;;;15.20;99.90;;;;;;5069362;28;20041;-65
2023/06/10 04:12:01;;;;;;;2.70;0.88;;;15.20;99.90;;;;;;5067841;28;20033;-64
2023/06/10 04:14:27;;;;;;;0.38;0.38;;;15.20;99.90;;;;;;5074655;28;20033;-65
2023/06/10 04:16:53;;;;;;;2.65;0.50;;;15.20;99.90;;;;;;5041313;28;20063;-65
2023/06/10 04:19:18;;;;;;;3.92;1.00;;;15.20;99.90;;;;;;5072459;28;20065;-65
2023/06/10 04:21:44;;;;;;;3.85;0.57;;;15.30;99.90;;;;;;5040340;28;20037;-64
2023/06/10 04:24:10;;;;;;;0.63;0.63;;;15.30;99.90;;;;;;5039993;28;20059;-65
2023/06/10 04:26:35;;;;;;;0.10;0.10;;;15.30;99.90;;;;;;5050788;28;20044;-65
2023/06/10 04:29:01;;;;;;;0.60;0.60;;;15.40;99.90;;;;;;5046560;28;20105;-65
2023/06/10 04:31:27;;;;;;;0.73;0.40;;;15.40;99.90;;;;;;5033054;28;20455;-64
2023/06/10 04:33:53;;;;;;;0.20;0.20;;;15.50;99.90;;;;;;5041763;28;20041;-65
2023/06/10 04:36:19;;;;;;;1.73;1.48;;;15.50;99.90;;;;;;5047486;28;20400;-65
2023/06/10 04:38:44;;;;;;;1.38;0.75;;;15.60;99.90;;;;;;5039112;28;20041;-65
2023/06/10 04:41:10;;;;;;;0.28;0.28;;;15.60;99.90;;;;;;5042658;28;20171;-65
2023/06/10 04:43:35;;;;;;;0.82;0.82;;;15.70;99.90;;;;;;5045081;28;20072;-65
2023/06/10 04:46:01;;;;;;;2.05;0.52;;;15.70;99.90;;;;;;5041818;28;20563;-65
2023/06/10 04:48:27;;;;;;;1.85;0.77;;;15.80;99.90;;;;;;5041992;28;20123;-65
2023/06/10 04:50:52;;;;;;;0.38;0.32;;;15.90;99.90;;;;;;5047645;28;20438;-65
2023/06/10 04:53:18;;;;;;;0.20;0.20;;;15.90;99.90;;;;;;5047882;28;20075;-65
2023/06/10 04:55:44;;;;;;;1.25;0.20;;;16.00;99.90;;;;;;5048309;28;20067;-64
2023/06/10 04:58:09;;;;;;;1.13;1.00;;;16.10;99.90;;;;;;5078470;28;20041;-65
2023/06/10 05:00:35;;;;;;;0.43;0.40;;;16.10;99.90;;;;;;5048748;28;20379;-65
2023/06/10 05:03:00;;;;;;;0.20;0.20;;;16.20;99.90;;;;;;5043230;28;20040;-65
2023/06/10 05:05:26;;;;;;;0.65;0.20;;;16.30;99.90;;;;;;5034248;28;20069;-65
2023/06/10 05:07:52;;;;;;;1.08;0.40;;;16.40;99.90;;;;;;5045853;28;20129;-65
2023/06/10 05:10:17;;;;;;;0.70;0.55;;;16.40;99.90;;;;;;5044020;28;20037;-65
2023/06/10 05:12:43;;;;;;;1.83;0.50;;;16.50;99.90;;;;;;5046622;28;20041;-65
2023/06/10 05:15:09;;;;;;;0.55;0.55;;;16.60;99.90;;;;;;5044942;28;20029;-66
2023/06/10 05:17:37;;;;;;;2.97;1.40;;;16.70;99.90;;;;;;5036339;28;20530;-65
2023/06/10 05:20:03;;;;;;;0.93;0.57;;;16.70;99.90;;;;;;5074100;28;20056;-65
2023/06/10 05:22:29;;;;;;;0.70;0.70;;;16.80;99.90;;;;;;5041014;28;20060;-65
2023/06/10 05:24:54;;;;;;;0.73;0.43;;;16.90;99.90;;;;;;5083172;28;20095;-66
2023/06/10 05:27:21;;;;;;;0.63;0.40;;;17.00;99.90;;;;;;5041259;28;20114;-65
2023/06/10 05:29:47;;;;;;;1.02;0.47;;;17.00;99.90;;;;;;5048482;28;20055;-65
2023/06/10 05:32:13;;;;;;;0.47;0.47;;;17.10;99.90;;;;;;5037145;28;20029;-65
2023/06/10 05:34:38;;;;;;;1.08;0.40;;;17.20;99.90;;;;;;5039588;28;20385;-65
2023/06/10 05:37:04;;;;;;;0.00;0.00;;;17.30;99.90;;;;;;5041523;28;20516;-66
2023/06/10 05:39:30;;;;;;;0.22;0.22;;;17.40;99.90;;;;;;5040692;28;20041;-65
2023/06/10 05:41:58;;;;;;;0.25;0.25;;;17.40;99.90;;;;;;5035835;28;20060;-65
2023/06/10 05:44:24;;;;;;;8.50;1.45;;;17.50;99.90;;;;;;5043930;28;20124;-65
2023/06/10 05:46:50;;;;;;;0.82;0.63;;;17.60;99.90;;;;;;5043548;28;20419;-65
2023/06/10 05:49:16;;;;;;;1.65;0.70;;;17.70;99.90;;;;;;5042916;28;20041;-65
2023/06/10 05:51:41;;;;;;;1.80;0.80;;;17.80;99.90;;;;;;5071076;28;20041;-65
2023/06/10 05:54:07;;;;;;;1.27;0.30;;;17.90;99.90;;;;;;5041299;28;20442;-64
2023/06/10 05:56:33;;;;;;;2.28;0.60;;;17.90;99.90;;;;;;5043012;28;20040;-66
2023/06/10 05:58:58;;;;;;;0.90;0.65;;;18.00;99.90;;;;;;5070705;28;20048;-65
2023/06/10 06:01:24;;;;;;;0.47;0.25;;;18.10;99.90;;;;;;5042937;28;20434;-66
2023/06/10 06:03:50;;;;;;;4.75;1.13;;;18.20;99.90;;;;;;5075619;28;20045;-66
2023/06/10 06:06:15;;;;;;;0.85;0.50;;;18.20;99.90;;;;;;5075088;28;20038;-66
2023/06/10 06:08:41;;;;;;;1.17;0.77;;;18.30;99.90;;;;;;5076355;28;20387;-65
2023/06/10 06:11:06;;;;;;;5.03;1.17;;;18.40;99.90;;;;;;5047103;28;20045;-67
2023/06/10 06:13:32;;;;;;;0.43;0.43;;;18.50;99.90;;;;;;5040026;28;20038;-67
2023/06/10 06:15:58;;;;;;;3.03;1.38;;;18.50;99.90;;;;;;5045008;28;20075;-66
2023/06/10 06:18:23;;;;;;;0.65;0.57;;;18.60;99.90;;;;;;5045509;28;20087;-65
2023/06/10 06:20:50;;;;;;;1.90;0.47;;;18.60;99.90;;;;;;5047013;28;20093;-64
2023/06/10 06:23:15;;;;;;;0.20;0.20;;;18.70;99.90;;;;;;5036449;28;20032;-64
2023/06/10 06:25:41;;;;;;;0.85;0.85;;;18.80;99.90;;;;;;5043743;28;20553;-65
2023/06/10 06:28:08;;;;;;;0.85;0.85;;;18.90;99.90;;;;;;5024103;28;20044;-64
2023/06/10 06:30:35;;;;;;;0.20;0.20;;;19.00;99.90;;;;;;5039168;28;20389;-64
2023/06/10 06:33:00;;;;;;;0.10;0.10;;;19.10;99.90;;;;;;5039016;28;20080;-65
2023/06/10 06:35:26;;;;;;;0.55;0.55;;;19.20;99.90;;;;;;5036581;28;20102;-65
2023/06/10 06:37:51;;;;;;;0.38;0.38;;;19.20;99.90;;;;;;5040001;28;20041;-65
2023/06/10 06:40:17;;;;;;;0.32;0.32;;;19.30;99.90;;;;;;5071846;28;20362;-65
2023/06/10 06:42:42;;;;;;;1.40;0.73;;;19.40;99.90;;;;;;5070353;28;20045;-65
2023/06/10 06:45:08;;;;;;;0.57;0.57;;;19.50;99.90;;;;;;5037541;28;20400;-65
2023/06/10 06:47:34;;;;;;;0.40;0.40;;;19.50;99.90;;;;;;5034135;28;20095;-66
2023/06/10 06:50:00;;;;;;;1.95;0.52;;;19.60;99.90;;;;;;5041854;28;20041;-65
2023/06/10 06:52:25;;;;;;;0.55;0.55;;;19.70;99.90;;;;;;5040493;28;20037;-65
2023/06/10 06:54:51;;;;;;;0.50;0.50;;;19.70;99.90;;;;;;5038742;28;20062;-65
2023/06/10 06:57:17;;;;;;;0.55;0.55;;;19.90;99.90;;;;;;5037631;28;20040;-65
2023/06/10 06:59:43;;;;;;;1.45;0.30;;;19.90;99.90;;;;;;5036095;28;20095;-65
2023/06/10 07:02:08;;;;;;;0.20;0.20;;;20.00;99.90;;;;;;5069139;28;20045;-67
2023/06/10 07:04:34;;;;;;;0.50;0.40;;;20.10;99.90;;;;;;5072699;28;20069;-66
2023/06/10 07:07:00;;;;;;;1.25;0.30;;;20.10;99.90;;;;;;5047693;28;20512;-66
2023/06/10 07:09:25;;;;;;;0.85;0.40;;;20.20;99.90;;;;;;5048563;28;20067;-66
2023/06/10 07:11:51;;;;;;;0.73;0.73;;;20.30;99.90;;;;;;5041231;28;20099;-65
2023/06/10 07:14:17;;;;;;;4.85;0.77;;;20.40;99.90;;;;;;5047956;28;20033;-66
2023/06/10 07:16:42;;;;;;;1.00;0.82;;;20.50;99.90;;;;;;5041136;28;20048;-66
2023/06/10 07:19:08;;;;;;;1.00;0.40;;;20.50;99.90;;;;;;5045349;28;20041;-68
2023/06/10 07:21:33;;;;;;;0.60;0.60;;;20.60;99.90;;;;;;5046944;28;20048;-65
2023/06/10 07:23:59;;;;;;;3.17;0.93;;;20.60;99.90;;;;;;5048762;28;20043;-65
2023/06/10 07:26:25;;;;;;;1.10;0.90;;;20.70;99.90;;;;;;5043326;28;20083;-66
2023/06/10 07:28:51;;;;;;;0.30;0.30;;;20.80;99.90;;;;;;5072237;28;20041;-66
2023/06/10 07:31:17;;;;;;;0.77;0.77;;;20.90;99.90;;;;;;5072263;28;20072;-65
2023/06/10 07:33:43;;;;;;;2.45;0.75;;;20.90;99.90;;;;;;5041143;28;20492;-65
2023/06/10 07:36:09;;;;;;;0.55;0.55;;;21.00;99.90;;;;;;5077141;28;20037;-66
2023/06/10 07:38:35;;;;;;;0.52;0.30;;;21.00;99.90;;;;;;5073370;28;20044;-66
2023/06/10 07:41:01;;;;;;;0.75;0.38;;;21.20;99.90;;;;;;5076875;28;20048;-66
2023/06/10 07:43:26;;;;;;;1.10;0.70;;;21.20;99.90;;;;;;5042149;28;20495;-65
2023/06/10 07:45:52;;;;;;;0.98;0.30;;;21.30;99.90;;;;;;5077530;28;20037;-65
2023/06/10 07:48:18;;;;;;;0.15;0.15;;;21.40;99.90;;;;;;5038535;28;20471;-66
2023/06/10 07:50:43;;;;;;;0.10;0.10;;;21.50;99.90;;;;;;5046500;28;20052;-66
2023/06/10 07:53:09;;;;;;;0.73;0.60;;;21.60;99.90;;;;;;5037267;28;20041;-68
2023/06/10 07:55:34;;;;;;;0.20;0.20;;;21.60;99.90;;;;;;5046876;28;20048;-66
2023/06/10 07:58:00;;;;;;;0.32;0.20;;;21.70;99.90;;;;;;5038896;28;20133;-66
2023/06/10 08:00:26;;;;;;;0.88;0.22;;;21.80;99.90;;;;;;5081755;28;20481;-66
2023/06/10 08:02:51;;;;;;;0.25;0.15;;;21.80;99.90;;;;;;5041853;28;20443;-65
2023/06/10 08:05:17;;;;;;;1.67;1.10;;;21.90;99.90;;;;;;5041279;28;20069;-66
2023/06/10 08:07:43;;;;;;;0.45;0.38;;;21.90;99.90;;;;;;5041971;28;20057;-65
2023/06/10 08:10:09;;;;;;;0.45;0.45;;;22.00;99.90;;;;;;5077623;28;20029;-66
2023/06/10 08:12:35;;;;;;;0.20;0.20;;;22.10;99.90;;;;;;5046049;28;20068;-66
2023/06/10 08:15:01;;;;;;;0.30;0.25;;;22.20;99.90;;;;;;5043325;28;20380;-66
2023/06/10 08:17:26;;;;;;;0.95;0.65;;;22.30;99.90;;;;;;5041280;28;20375;-67
2023/06/10 08:19:52;;;;;;;0.60;0.60;;;22.30;99.90;;;;;;5076675;28;20107;-66
2023/06/10 08:22:18;;;;;;;1.10;0.85;;;22.40;99.90;;;;;;5042324;28;20033;-65
2023/06/10 08:24:43;;;;;;;0.20;0.20;;;22.40;99.90;;;;;;5078358;28;20045;-66
2023/06/10 08:27:10;;;;;;;0.50;0.50;;;22.50;99.90;;;;;;5040842;28;20090;-66
2023/06/10 08:29:35;;;;;;;0.22;0.22;;;22.60;99.90;;;;;;5045083;28;20365;-67
2023/06/10 08:32:01;;;;;;;0.28;0.28;;;22.70;99.90;;;;;;5047303;28;20044;-66
2023/06/10 08:34:27;;;;;;;0.35;0.35;;;22.70;99.90;;;;;;5035080;28;20045;-66
2023/06/10 08:36:55;;;;;;;0.75;0.75;;;22.80;99.90;;;;;;5060029;28;20113;-66
2023/06/10 08:39:21;;;;;;;0.20;0.20;;;22.90;99.90;;;;;;5040683;28;20052;-66
2023/06/10 08:42:14;;;;;;;0.70;0.70;;;23.00;99.90;;;;;;5077024;28;20044;-66
2023/06/10 08:44:40;;;;;;;0.88;0.35;;;23.10;99.90;;;;;;5048093;28;20045;-66
2023/06/10 08:47:16;;;;;;;0.47;0.47;;;23.30;99.90;;;;;;5041002;28;20388;-66
2023/06/10 08:49:46;;;;;;;0.50;0.50;;;23.40;99.90;;;;;;5040583;28;20179;-66
2023/06/10 08:52:17;;;;;;;2.00;0.50;;;23.50;99.90;;;;;;5042892;28;20045;-67
2023/06/10 08:54:48;;;;;;;0.13;0.13;;;23.60;99.90;;;;;;5079223;28;20507;-67
2023/06/10 08:57:15;;;;;;;1.15;0.47;;;23.70;99.90;;;;;;5045499;28;20036;-66
2023/06/10 08:59:41;;;;;;;0.17;0.17;;;23.80;99.90;;;;;;5046234;28;20098;-66
2023/06/10 09:02:08;;;;;;;0.10;0.10;;;23.90;99.90;;;;;;5074651;28;20044;-67
2023/06/10 09:04:36;;;;;;;0.32;0.25;;;24.00;99.90;;;;;;5072690;28;20042;-65
2023/06/10 09:07:03;;;;;;;0.68;0.68;;;24.00;99.90;;;;;;5040172;28;20053;-67
2023/06/10 09:09:30;;;;;;;1.27;0.35;;;24.10;99.90;;;;;;5043057;28;20041;-66
2023/06/10 09:11:56;;;;;;;1.10;0.70;;;24.20;99.90;;;;;;5043664;28;20525;-66
2023/06/10 09:14:22;;;;;;;0.50;0.50;;;24.30;99.90;;;;;;5045543;28;20132;-66
2023/06/10 09:16:48;;;;;;;1.50;0.93;;;24.30;99.90;;;;;;5047161;28;20404;-67
2023/06/10 09:19:16;;;;;;;0.75;0.40;;;24.40;99.90;;;;;;5049421;28;20045;-67
2023/06/10 09:21:41;;;;;;;1.70;1.27;;;24.40;99.90;;;;;;5036622;28;20107;-68
2023/06/10 09:24:07;;;;;;;3.13;0.50;;;24.30;99.90;;;;;;5047030;28;20041;-66
2023/06/10 09:26:32;;;;;;;1.58;1.48;;;24.40;99.90;;;;;;5047577;28;20083;-66
2023/06/10 09:29:08;;;;;;;0.28;0.28;;;24.40;99.90;;;;;;5049705;28;20048;-67
2023/06/10 09:31:38;;;;;;;0.45;0.45;;;24.50;99.90;;;;;;5045559;28;20033;-68
2023/06/10 09:34:15;;;;;;;0.57;0.45;;;24.60;99.90;;;;;;5076176;28;20061;-66
2023/06/10 09:36:41;;;;;;;0.28;0.28;;;24.60;99.90;;;;;;5043034;28;20117;-65
2023/06/10 09:39:19;;;;;;;0.68;0.63;;;24.60;99.90;;;;;;5045660;28;20067;-66
2023/06/10 09:41:45;;;;;;;2.00;1.30;;;24.70;99.90;;;;;;5048158;28;20549;-66
2023/06/10 09:44:21;;;;;;;1.17;0.98;;;24.80;99.90;;;;;;5049015;28;20124;-67
2023/06/10 09:46:50;;;;;;;2.25;0.68;;;24.90;99.90;;;;;;5041390;28;20045;-66
2023/06/10 09:49:19;;;;;;;0.50;0.50;;;24.90;99.90;;;;;;5048388;28;20053;-67
2023/06/10 09:51:52;;;;;;;27.15;3.10;;;24.90;99.90;;;;;;5043123;28;20033;-68
2023/06/10 09:54:18;;;;;;;1.45;0.40;;;24.90;99.90;;;;;;5047132;28;20168;-68
2023/06/10 09:56:47;;;;;;;0.85;0.85;;;25.00;99.90;;;;;;5046184;28;20123;-67
2023/06/10 09:59:13;;;;;;;1.13;1.02;;;25.00;99.90;;;;;;5044396;28;20041;-65
2023/06/10 10:01:38;;;;;;;6.03;0.85;;;25.00;99.90;;;;;;5042550;28;20053;-65
2023/06/10 10:04:04;;;;;;;1.60;0.98;;;25.10;99.90;;;;;;5049467;28;20039;-65
2023/06/10 10:06:30;;;;;;;2.58;0.88;;;25.20;99.90;;;;;;5045438;28;20049;-66
2023/06/10 10:08:56;;;;;;;0.52;0.52;;;25.20;99.90;;;;;;5048844;28;20087;-66
2023/06/10 10:11:22;;;;;;;0.80;0.30;;;25.30;99.90;;;;;;5046754;28;20081;-67
2023/06/10 10:13:52;;;;;;;0.47;0.47;;;25.40;99.90;;;;;;5043956;28;20029;-67
2023/06/10 10:16:40;;;;;;;0.52;0.52;;;25.50;99.90;;;;;;5030998;28;20087;-66
2023/06/10 10:19:12;;;;;;;0.68;0.60;;;25.50;99.90;;;;;;5038800;28;20130;-66
2023/06/10 10:21:50;;;;;;;0.43;0.43;;;25.60;99.90;;;;;;5048558;28;20072;-65
2023/06/10 10:24:21;;;;;;;0.63;0.45;;;25.60;99.90;;;;;;5043007;28;20167;-66
2023/06/10 10:26:48;;;;;;;3.63;0.65;;;25.60;99.90;;;;;;5048993;28;20045;-66
2023/06/10 10:29:29;;;;;;;0.90;0.35;;;25.60;99.90;;;;;;5040625;28;20073;-65
2023/06/10 10:31:57;;;;;;;0.35;0.35;;;25.70;99.90;;;;;;5042553;28;20471;-65
2023/06/10 10:35:18;;;;;;;0.40;0.38;;;25.70;99.90;;;;;;5046822;28;20045;-67
2023/06/10 10:37:44;;;;;;;1.35;1.13;;;25.80;99.90;;;;;;5039943;28;20056;-66
2023/06/10 10:40:11;;;;;;;0.40;0.40;;;25.80;99.90;;;;;;5044449;28;20051;-66
2023/06/10 10:42:38;;;;;;;0.80;0.52;;;25.80;99.90;;;;;;5045835;28;20045;-65
2023/06/10 10:45:05;;;;;;;0.50;0.50;;;25.80;99.40;;;;;;5047137;28;20439;-65
2023/06/10 10:47:32;;;;;;;3.72;1.52;;;25.80;99.90;;;;;;5041269;28;20106;-65
2023/06/10 10:49:59;;;;;;;1.80;0.95;;;25.90;98.20;;;;;;5043700;28;20049;-65
2023/06/10 10:52:26;;;;;;;1.45;0.88;;;25.90;98.20;;;;;;5045054;28;20121;-66
2023/06/10 10:54:53;;;;;;;6.00;1.92;;;25.90;99.80;;;;;;5077519;28;20547;-68
2023/06/10 10:57:23;;;;;;;1.55;0.63;;;26.00;99.90;;;;;;5082193;28;20045;-65
2023/06/10 10:59:49;;;;;;;0.20;0.20;;;26.00;99.90;;;;;;5044726;28;20032;-66
2023/06/10 11:02:43;;;;;;;1.20;1.08;;;26.10;99.80;;;;;;5039515;28;20094;-66
2023/06/10 11:05:29;;;;;;;1.60;1.27;;;26.10;99.00;;;;;;5041745;28;20458;-65
2023/06/10 11:07:58;;;;;;;1.27;0.57;;;26.20;97.50;;;;;;5038658;28;20048;-67
2023/06/10 11:10:32;;;;;;;0.65;0.65;;;26.20;98.90;;;;;;5036628;28;20448;-65
2023/06/10 11:12:58;;;;;;;0.68;0.68;;;26.20;97.90;;;;;;5047260;28;20102;-65
2023/06/10 11:15:26;;;;;;;1.45;0.85;;;26.30;97.90;;;;;;5050192;28;20434;-65
2023/06/10 11:18:09;;;;;;;0.30;0.30;;;26.20;97.10;;;;;;5038951;28;20037;-65
2023/06/10 11:20:52;;;;;;;2.10;0.80;;;26.30;98.90;;;;;;5044328;28;20048;-64
2023/06/10 11:23:26;;;;;;;1.10;0.98;;;26.30;97.70;;;;;;5078013;28;20044;-65
2023/06/10 11:26:09;;;;;;;0.20;0.20;;;26.40;98.70;;;;;;5043307;28;20130;-66
2023/06/10 11:28:35;;;;;;;2.75;1.00;;;26.40;97.80;;;;;;5046541;28;20186;-66
2023/06/10 11:31:00;;;;;;;0.43;0.43;;;26.40;95.30;;;;;;5045616;28;20112;-66
2023/06/10 11:33:27;;;;;;;0.55;0.52;;;26.40;96.40;;;;;;5048749;28;20045;-64
2023/06/10 11:35:52;;;;;;;2.92;1.02;;;26.40;95.90;;;;;;5047121;28;20079;-67
2023/06/10 11:38:19;;;;;;;0.65;0.65;;;26.50;98.40;;;;;;5041370;28;20060;-65
2023/06/10 11:40:53;;;;;;;0.63;0.57;;;26.60;98.40;;;;;;5039253;28;20029;-65
2023/06/10 11:43:19;;;;;;;0.30;0.30;;;26.60;96.00;;;;;;5035721;28;20057;-65
2023/06/10 11:45:45;;;;;;;0.47;0.22;;;26.60;95.40;;;;;;5039214;28;20088;-66
2023/06/10 11:48:12;;;;;;;1.08;0.50;;;26.60;94.90;;;;;;5038819;28;20512;-66
2023/06/10 11:50:38;;;;;;;0.38;0.38;;;26.60;95.80;;;;;;5029098;28;20090;-68
2023/06/10 11:53:04;;;;;;;5.78;1.10;;;26.60;96.20;;;;;;5039784;28;20064;-67
2023/06/10 11:55:50;;;;;;;0.73;0.73;;;26.60;95.00;;;;;;5041513;28;20495;-65
2023/06/10 11:58:21;;;;;;;0.45;0.30;;;26.60;93.40;;;;;;5043809;28;20124;-67
2023/06/10 12:00:56;;;;;;;1.77;0.77;;;26.60;94.60;;;;;;5038014;28;20037;-66
2023/06/10 12:03:22;;;;;;;0.70;0.70;;;26.70;94.10;;;;;;5040957;28;20037;-64
2023/06/10 12:06:02;;;;;;;0.22;0.22;;;26.70;92.60;;;;;;5048923;28;20037;-65
2023/06/10 12:08:28;;;;;;;0.75;0.75;;;26.80;93.80;;;;;;5043340;28;20080;-65
2023/06/10 12:10:55;;;;;;;0.35;0.35;;;26.80;92.10;;;;;;5047676;28;20041;-65
2023/06/10 12:13:21;;;;;;;0.10;0.10;;;26.80;92.50;;;;;;5042749;28;20109;-65
2023/06/10 12:15:47;;;;;;;0.63;0.40;;;26.80;93.00;;;;;;5039945;28;20510;-64
2023/06/10 12:18:21;;;;;;;0.50;0.50;;;26.90;93.70;;;;;;5039479;28;20111;-64
2023/06/10 12:20:46;;;;;;;3.78;1.48;;;26.90;93.80;;;;;;5046162;28;20076;-65
2023/06/10 12:23:13;;;;;;;0.35;0.35;;;27.00;92.40;;;;;;5044485;28;20075;-65
2023/06/10 12:25:39;;;;;;;1.23;0.57;;;26.90;92.30;;;;;;5070554;28;20041;-65
2023/06/10 12:28:06;;;;;;;2.78;0.60;;;27.00;92.30;;;;;;5038915;28;20055;-65
2023/06/10 12:30:32;;;;;;;5.03;0.50;;;27.00;90.70;;;;;;5046301;28;20037;-65
2023/06/10 12:32:58;;;;;;;0.20;0.20;;;26.90;88.60;;;;;;5040115;28;20044;-65
2023/06/10 12:35:26;;;;;;;0.20;0.20;;;26.90;89.80;;;;;;5045617;28;20041;-67
2023/06/10 12:38:06;;;;;;;1.27;0.43;;;26.90;89.70;;;;;;5045709;28;20063;-65
2023/06/10 12:40:34;;;;;;;0.43;0.30;;;26.90;90.50;;;;;;5036584;28;20099;-65
2023/06/10 12:43:00;;;;;;;0.85;0.50;;;26.90;89.80;;;;;;5040585;28;20076;-65
2023/06/10 12:45:42;;;;;;;0.30;0.25;;;26.90;89.30;;;;;;5042109;28;20075;-65
2023/06/10 12:48:09;;;;;;;;;;;26.90;89.00;;;;;;5038874;28;20123;-64
2023/06/10 12:50:40;;;;;;;0.20;0.20;;;27.00;89.50;;;;;;5077446;28;19948;-66